National Weather Service Raw Text Product

Displaying AFOS PIL: TAFDSM Received: 2018-12-06 11:29 UTC


308 
FTUS43 KDMX 061129
TAFDSM
TAF
KDSM 061129Z 0612/0712 34012KT P6SM OVC016
     FM061300 33013KT P6SM SCT020
     FM070000 33004KT P6SM SKC=